createdAt,value
2023-03-03T00:01:21.908Z,63.92
2023-03-03T00:03:52.957Z,64.03
2023-03-03T00:06:24.570Z,64.22
2023-03-03T00:08:56.079Z,64.11
2023-03-03T00:11:26.908Z,64.35
2023-03-03T00:14:00.925Z,64.35
2023-03-03T00:16:37.094Z,64.18
2023-03-03T00:19:16.275Z,64.31
2023-03-03T00:21:49.217Z,64.18
2023-03-03T00:24:23.363Z,64.37
2023-03-03T00:26:56.052Z,64.51
2023-03-03T00:29:41.018Z,64.48
2023-03-03T00:32:26.314Z,64.26
2023-03-03T00:35:02.802Z,64.31
2023-03-03T00:37:35.685Z,64.48
2023-03-03T00:40:24.963Z,64.57
2023-03-03T00:42:57.612Z,64.46
2023-03-03T00:45:35.896Z,64.46
2023-03-03T00:48:24.259Z,64.43
2023-03-03T00:50:56.562Z,64.79
2023-03-03T00:53:28.618Z,64.86
2023-03-03T00:55:59.745Z,64.95
2023-03-03T00:58:31.185Z,65.00
2023-03-03T01:01:02.372Z,64.85
2023-03-03T01:03:41.470Z,64.89
2023-03-03T01:06:13.211Z,65.08
2023-03-03T01:08:43.956Z,65.23
2023-03-03T01:11:17.800Z,65.22
2023-03-03T01:13:51.289Z,65.08
2023-03-03T01:16:22.628Z,65.03
2023-03-03T01:18:54.651Z,65.03
2023-03-03T01:21:26.035Z,65.00
2023-03-03T01:23:56.806Z,65.00
2023-03-03T01:26:27.638Z,65.05
2023-03-03T01:28:58.370Z,65.24
2023-03-03T01:31:29.801Z,65.04
2023-03-03T01:34:00.777Z,65.22
2023-03-03T01:36:31.815Z,65.39
2023-03-03T01:39:03.499Z,65.38
2023-03-03T01:41:34.819Z,65.52
2023-03-03T01:44:05.664Z,65.38
2023-03-03T01:46:53.016Z,65.46
2023-03-03T01:49:28.077Z,65.33
2023-03-03T01:52:02.502Z,65.33
2023-03-03T01:54:39.758Z,65.40
2023-03-03T01:57:17.085Z,65.24
2023-03-03T01:59:51.218Z,65.24
2023-03-03T02:02:23.182Z,65.44
2023-03-03T02:04:53.928Z,65.49
2023-03-03T02:07:27.138Z,65.35
2023-03-03T02:10:05.645Z,65.15
2023-03-03T02:12:39.842Z,65.13
2023-03-03T02:15:28.225Z,65.09
2023-03-03T02:18:02.460Z,65.19
2023-03-03T02:20:46.238Z,65.28
2023-03-03T02:23:23.653Z,65.43
2023-03-03T02:26:11.124Z,65.39
2023-03-03T02:28:43.983Z,65.53
2023-03-03T02:31:18.109Z,65.50
2023-03-03T02:33:51.608Z,65.48
2023-03-03T02:36:25.022Z,65.60
2023-03-03T02:39:03.969Z,65.57
2023-03-03T02:41:40.619Z,65.51
2023-03-03T02:44:16.032Z,65.49
2023-03-03T02:46:49.220Z,65.53
2023-03-03T02:49:24.003Z,65.42
2023-03-03T02:51:55.519Z,65.43
2023-03-03T02:54:28.408Z,65.59
2023-03-03T02:56:59.621Z,65.50
2023-03-03T02:59:31.988Z,65.61
2023-03-03T03:02:05.144Z,65.30
2023-03-03T03:04:36.298Z,65.48
2023-03-03T03:07:08.741Z,65.42
2023-03-03T03:09:40.534Z,65.50
2023-03-03T03:12:12.377Z,65.34
2023-03-03T03:14:43.242Z,65.42
2023-03-03T03:17:14.210Z,65.28
2023-03-03T03:19:47.385Z,65.45
2023-03-03T03:22:19.709Z,65.57
2023-03-03T03:24:51.018Z,65.53
2023-03-03T03:27:23.570Z,65.73
2023-03-03T03:29:54.860Z,65.72
2023-03-03T03:32:26.419Z,65.73
2023-03-03T03:34:57.231Z,66.02
2023-03-03T03:37:30.711Z,65.96
2023-03-03T03:40:01.913Z,66.09
2023-03-03T03:42:34.033Z,65.91
2023-03-03T03:45:05.243Z,65.92
2023-03-03T03:47:37.172Z,65.97
2023-03-03T03:50:10.335Z,65.80
2023-03-03T03:52:43.687Z,66.01
2023-03-03T03:55:15.208Z,66.01
2023-03-03T03:57:46.374Z,66.00
2023-03-03T04:00:18.472Z,65.90
2023-03-03T04:02:53.995Z,66.04
2023-03-03T04:05:25.665Z,66.07
2023-03-03T04:07:57.989Z,66.08
2023-03-03T04:10:28.945Z,65.90
2023-03-03T04:13:00.134Z,66.27
2023-03-03T04:15:31.899Z,66.19
2023-03-03T04:18:03.580Z,66.35
2023-03-03T04:20:34.727Z,66.20
2023-03-03T04:23:05.687Z,66.41
2023-03-03T04:25:36.504Z,66.36
2023-03-03T04:28:14.995Z,66.52
2023-03-03T04:30:46.147Z,66.40
2023-03-03T04:33:18.166Z,66.35
2023-03-03T04:35:50.035Z,66.40
2023-03-03T04:38:21.187Z,66.49
2023-03-03T04:40:52.374Z,66.41
2023-03-03T04:43:23.387Z,66.50
2023-03-03T04:45:54.311Z,66.57
2023-03-03T04:48:25.461Z,66.25
2023-03-03T04:50:56.626Z,66.55
2023-03-03T04:53:27.507Z,66.42
2023-03-03T04:55:58.291Z,66.73
2023-03-03T04:58:29.499Z,66.73
2023-03-03T05:01:00.698Z,66.55
2023-03-03T05:03:32.657Z,66.81
2023-03-03T05:06:03.509Z,66.79
2023-03-03T05:08:34.259Z,66.86
2023-03-03T05:11:05.859Z,66.81
2023-03-03T05:13:36.615Z,66.71
2023-03-03T05:16:08.593Z,66.64
2023-03-03T05:18:39.524Z,66.65
2023-03-03T05:21:10.435Z,67.07
2023-03-03T05:23:41.398Z,66.88
2023-03-03T05:26:12.038Z,66.91
2023-03-03T05:28:43.142Z,67.27
2023-03-03T05:31:13.915Z,67.02
2023-03-03T05:33:44.580Z,67.18
2023-03-03T05:36:15.261Z,67.24
2023-03-03T05:38:46.001Z,67.09
2023-03-03T05:41:16.712Z,67.12
2023-03-03T05:43:47.625Z,67.26
2023-03-03T05:46:18.732Z,66.98
2023-03-03T05:48:49.548Z,67.36
2023-03-03T05:51:20.246Z,67.40
2023-03-03T05:53:50.950Z,67.33
2023-03-03T05:56:21.672Z,67.05
2023-03-03T05:58:52.478Z,66.93
2023-03-03T06:01:23.185Z,66.97
2023-03-03T06:03:54.176Z,66.91
2023-03-03T06:06:25.195Z,66.76
2023-03-03T06:08:57.268Z,66.85
2023-03-03T06:11:28.096Z,67.03
2023-03-03T06:13:59.251Z,66.97
2023-03-03T06:16:30.216Z,66.97
2023-03-03T06:19:01.471Z,67.12
2023-03-03T06:21:32.290Z,67.09
2023-03-03T06:24:03.005Z,66.91
2023-03-03T06:26:34.159Z,67.00
2023-03-03T06:29:04.916Z,66.94
2023-03-03T06:31:35.829Z,66.95
2023-03-03T06:34:06.698Z,66.86
2023-03-03T06:36:37.563Z,66.75
2023-03-03T06:39:08.719Z,66.67
2023-03-03T06:41:40.859Z,66.70
2023-03-03T06:44:13.005Z,66.72
2023-03-03T06:46:43.852Z,66.76
2023-03-03T06:49:14.554Z,66.79
2023-03-03T06:51:46.550Z,66.79
2023-03-03T06:54:19.944Z,66.88
2023-03-03T06:56:55.077Z,66.87
2023-03-03T06:59:28.155Z,66.96
2023-03-03T07:02:02.813Z,67.23
2023-03-03T07:04:37.111Z,67.25
2023-03-03T07:07:21.433Z,67.28
2023-03-03T07:09:54.789Z,67.34
2023-03-03T07:12:27.838Z,67.18
2023-03-03T07:15:16.108Z,67.22
2023-03-03T07:17:51.128Z,67.20
2023-03-03T07:20:23.309Z,67.22
2023-03-03T07:22:54.781Z,67.10
2023-03-03T07:25:32.057Z,66.94
2023-03-03T07:28:20.464Z,67.01
2023-03-03T07:30:52.003Z,67.00
2023-03-03T07:33:28.341Z,66.98
2023-03-03T07:36:01.234Z,67.28
2023-03-03T07:38:41.992Z,67.39
2023-03-03T07:41:21.010Z,67.49
2023-03-03T07:43:55.757Z,67.54
2023-03-03T07:46:44.807Z,67.53
2023-03-03T07:49:25.578Z,67.64
2023-03-03T07:51:58.628Z,67.45
2023-03-03T07:54:40.556Z,67.24
2023-03-03T07:57:23.683Z,67.50
2023-03-03T08:00:02.124Z,67.40
2023-03-03T08:02:48.615Z,67.37
2023-03-03T08:05:35.967Z,67.44
2023-03-03T08:08:29.449Z,67.24
2023-03-03T08:11:01.538Z,67.24
2023-03-03T08:13:40.516Z,67.36
2023-03-03T08:16:31.681Z,67.40
2023-03-03T08:19:06.120Z,67.32
2023-03-03T08:21:38.812Z,67.43
2023-03-03T08:24:10.281Z,67.46
2023-03-03T08:26:41.608Z,67.34
2023-03-03T08:29:13.326Z,67.33
2023-03-03T08:31:44.748Z,67.30
2023-03-03T08:34:15.887Z,67.29
2023-03-03T08:36:47.543Z,66.96
2023-03-03T08:39:18.694Z,67.02
2023-03-03T08:41:49.732Z,66.91
2023-03-03T08:44:30.117Z,67.09
2023-03-03T08:47:01.367Z,66.90
2023-03-03T08:49:33.088Z,66.72
2023-03-03T08:52:04.978Z,66.70
2023-03-03T08:54:36.937Z,66.71
2023-03-03T08:57:08.116Z,66.82
2023-03-03T08:59:40.778Z,66.74
2023-03-03T09:02:12.002Z,66.95
2023-03-03T09:04:42.955Z,66.51
2023-03-03T09:07:13.845Z,66.63
2023-03-03T09:09:46.341Z,66.65
2023-03-03T09:12:20.255Z,66.48
2023-03-03T09:14:52.269Z,66.03
2023-03-03T09:17:28.283Z,66.23
2023-03-03T09:20:04.361Z,66.36
2023-03-03T09:22:39.675Z,65.57
2023-03-03T09:25:21.670Z,65.74
2023-03-03T09:27:57.714Z,65.74
2023-03-03T09:30:40.430Z,65.79
2023-03-03T09:33:26.235Z,65.47
2023-03-03T09:36:04.574Z,65.76
2023-03-03T09:38:41.513Z,65.46
2023-03-03T09:41:32.464Z,65.45
2023-03-03T09:44:26.588Z,65.14
2023-03-03T09:47:15.301Z,65.02
2023-03-03T09:49:58.536Z,65.24
2023-03-03T09:52:39.499Z,65.33
2023-03-03T09:55:25.697Z,65.22
2023-03-03T09:58:12.134Z,65.44
2023-03-03T10:00:56.585Z,64.97
2023-03-03T10:03:55.443Z,65.22
2023-03-03T10:06:30.142Z,65.16
2023-03-03T10:09:11.710Z,65.01
2023-03-03T10:11:47.745Z,64.97
2023-03-03T10:14:50.533Z,65.30
2023-03-03T10:17:29.650Z,65.00
2023-03-03T10:20:15.081Z,64.88
2023-03-03T10:22:54.597Z,64.87
2023-03-03T10:25:36.210Z,64.85
2023-03-03T10:28:36.791Z,65.07
2023-03-03T10:31:18.546Z,64.76
2023-03-03T10:34:00.735Z,64.78
2023-03-03T10:36:47.800Z,64.90
2023-03-03T10:39:39.876Z,64.76
2023-03-03T10:42:45.622Z,64.80
2023-03-03T10:45:45.699Z,64.87
2023-03-03T10:48:31.688Z,64.94
2023-03-03T10:51:17.532Z,64.78
2023-03-03T10:54:04.258Z,64.82
2023-03-03T10:56:53.359Z,64.33
2023-03-03T10:59:41.313Z,64.49
2023-03-03T11:02:22.462Z,64.63
2023-03-03T11:05:06.867Z,64.73
2023-03-03T11:07:42.303Z,64.16
2023-03-03T11:10:25.723Z,64.07
2023-03-03T11:13:11.521Z,64.49
2023-03-03T11:15:51.832Z,64.49
2023-03-03T11:18:43.591Z,64.25
2023-03-03T11:21:24.385Z,64.35
2023-03-03T11:24:11.936Z,64.40
2023-03-03T11:26:58.683Z,64.23
2023-03-03T11:29:45.369Z,64.14
2023-03-03T11:32:28.587Z,64.18
2023-03-03T11:35:09.371Z,64.30
2023-03-03T11:37:46.997Z,64.42
2023-03-03T11:40:23.454Z,64.21
2023-03-03T11:43:05.106Z,64.17
2023-03-03T11:45:44.985Z,64.24
2023-03-03T11:48:22.448Z,64.36
2023-03-03T11:51:00.213Z,64.32
2023-03-03T11:53:46.376Z,64.32
2023-03-03T11:56:26.100Z,64.14
2023-03-03T11:59:15.253Z,64.36
2023-03-03T12:01:54.275Z,64.18
2023-03-03T12:04:34.276Z,64.03
2023-03-03T12:07:21.689Z,64.28
2023-03-03T12:10:04.068Z,64.54
2023-03-03T12:12:42.193Z,64.46
2023-03-03T12:15:28.895Z,64.33
2023-03-03T12:18:11.350Z,64.39
2023-03-03T12:20:48.990Z,64.51
2023-03-03T12:23:48.202Z,64.75
2023-03-03T12:26:22.245Z,64.60
2023-03-03T12:28:56.534Z,64.90
2023-03-03T12:31:38.805Z,64.73
2023-03-03T12:34:18.962Z,64.87
2023-03-03T12:37:10.914Z,64.76
2023-03-03T12:39:53.210Z,64.80
2023-03-03T12:42:35.080Z,64.85
2023-03-03T12:45:20.409Z,64.69
2023-03-03T12:47:57.907Z,64.57
2023-03-03T12:50:44.875Z,64.63
2023-03-03T12:53:32.378Z,64.60
2023-03-03T12:56:08.097Z,65.07
2023-03-03T12:58:51.416Z,64.95
2023-03-03T13:01:40.135Z,65.00
2023-03-03T13:04:18.442Z,64.94
2023-03-03T13:06:55.012Z,65.14
2023-03-03T13:09:41.628Z,65.25
2023-03-03T13:12:29.797Z,65.34
2023-03-03T13:15:12.627Z,64.96
2023-03-03T13:17:50.148Z,65.07
2023-03-03T13:20:31.941Z,64.88
2023-03-03T13:23:09.816Z,64.95
2023-03-03T13:25:51.761Z,64.79
2023-03-03T13:28:31.877Z,64.87
2023-03-03T13:31:10.162Z,64.97
2023-03-03T13:33:49.026Z,65.01
2023-03-03T13:36:21.237Z,64.99
2023-03-03T13:38:56.925Z,64.98
2023-03-03T13:41:34.940Z,64.85
2023-03-03T13:44:12.356Z,65.17
2023-03-03T13:46:50.633Z,64.89
2023-03-03T13:49:34.838Z,64.97
2023-03-03T13:52:10.824Z,65.23
2023-03-03T13:54:53.035Z,64.90
2023-03-03T13:57:37.619Z,64.93
2023-03-03T14:00:22.720Z,64.81
2023-03-03T14:03:11.597Z,64.76
2023-03-03T14:05:46.358Z,64.93
2023-03-03T14:08:27.350Z,64.79
2023-03-03T14:11:11.548Z,65.00
2023-03-03T14:13:52.723Z,64.93
2023-03-03T14:16:38.719Z,65.05
2023-03-03T14:19:17.429Z,65.22
2023-03-03T14:22:00.030Z,65.00
2023-03-03T14:24:31.184Z,65.00
2023-03-03T14:27:22.716Z,65.19
2023-03-03T14:29:54.626Z,65.19
2023-03-03T14:32:43.198Z,65.18
2023-03-03T14:35:22.549Z,65.03
2023-03-03T14:37:53.511Z,65.18
2023-03-03T14:40:32.534Z,65.07
2023-03-03T14:43:08.014Z,65.18
2023-03-03T14:45:41.046Z,65.31
2023-03-03T14:48:19.234Z,64.93
2023-03-03T14:50:54.696Z,64.85
2023-03-03T14:53:35.466Z,64.79
2023-03-03T14:56:25.187Z,64.88
2023-03-03T14:59:13.956Z,64.98
2023-03-03T15:01:44.848Z,64.85
2023-03-03T15:04:28.729Z,64.96
2023-03-03T15:07:00.532Z,64.88
2023-03-03T15:09:38.454Z,64.77
2023-03-03T15:12:23.814Z,64.69
2023-03-03T15:15:03.986Z,64.73
2023-03-03T15:17:39.573Z,64.63
2023-03-03T15:20:25.917Z,64.79
2023-03-03T15:23:06.345Z,64.99
2023-03-03T15:25:50.899Z,64.96
2023-03-03T15:28:36.838Z,64.84
2023-03-03T15:31:16.053Z,64.90
2023-03-03T15:33:58.041Z,64.95
2023-03-03T15:36:39.067Z,64.83
2023-03-03T15:39:22.320Z,64.78
2023-03-03T15:42:06.034Z,64.86
2023-03-03T15:44:53.686Z,64.91
2023-03-03T15:47:48.787Z,64.75
2023-03-03T15:50:33.973Z,64.65
2023-03-03T15:53:18.716Z,64.65
2023-03-03T15:56:05.808Z,64.81
2023-03-03T15:58:52.770Z,64.86
2023-03-03T16:01:28.644Z,64.93
2023-03-03T16:04:05.464Z,64.99
2023-03-03T16:06:48.300Z,64.88
2023-03-03T16:09:33.346Z,64.80
2023-03-03T16:12:14.781Z,64.93
2023-03-03T16:14:57.921Z,64.91
2023-03-03T16:17:35.783Z,64.88
2023-03-03T16:20:20.784Z,64.75
2023-03-03T16:23:15.705Z,64.70
2023-03-03T16:25:59.749Z,64.68
2023-03-03T16:28:44.457Z,64.53
2023-03-03T16:31:22.471Z,64.41
2023-03-03T16:34:04.203Z,64.48
2023-03-03T16:36:48.430Z,64.46
2023-03-03T16:39:30.101Z,64.52
2023-03-03T16:42:10.451Z,64.53
2023-03-03T16:44:50.490Z,64.69
2023-03-03T16:47:37.503Z,64.85
2023-03-03T16:50:26.424Z,64.81
2023-03-03T16:53:10.870Z,64.73
2023-03-03T16:55:52.065Z,64.73
2023-03-03T16:58:34.351Z,64.85
2023-03-03T17:01:16.065Z,64.77
2023-03-03T17:04:00.455Z,64.62
2023-03-03T17:06:50.380Z,64.60
2023-03-03T17:09:39.667Z,64.49
2023-03-03T17:12:36.969Z,64.73
2023-03-03T17:15:30.928Z,64.84
2023-03-03T17:18:12.510Z,64.96
2023-03-03T17:20:52.809Z,65.08
2023-03-03T17:23:53.773Z,65.30
2023-03-03T17:26:38.554Z,65.10
2023-03-03T17:29:25.825Z,65.00
2023-03-03T17:32:08.611Z,65.18
2023-03-03T17:34:50.929Z,65.14
2023-03-03T17:37:33.803Z,65.14
2023-03-03T17:40:19.788Z,65.14
2023-03-03T17:42:58.456Z,64.93
2023-03-03T17:45:36.470Z,65.11
2023-03-03T17:48:42.043Z,65.06
2023-03-03T17:51:41.594Z,65.21
2023-03-03T17:54:41.937Z,65.03
2023-03-03T17:57:30.185Z,64.97
2023-03-03T18:00:19.256Z,64.97
2023-03-03T18:03:18.471Z,65.03
2023-03-03T18:06:19.329Z,65.12
2023-03-03T18:09:20.037Z,65.13
2023-03-03T18:12:11.842Z,65.24
2023-03-03T18:15:18.455Z,65.31
2023-03-03T18:18:05.012Z,65.16
2023-03-03T18:21:01.197Z,64.92
2023-03-03T18:23:42.219Z,64.95
2023-03-03T18:26:39.419Z,64.94
2023-03-03T18:29:21.541Z,64.87
2023-03-03T18:32:04.735Z,64.99
2023-03-03T18:34:40.494Z,64.96
2023-03-03T18:37:45.666Z,65.17
2023-03-03T18:40:30.833Z,65.18
2023-03-03T18:43:40.617Z,65.30
2023-03-03T18:46:33.529Z,65.40
2023-03-03T18:49:07.402Z,65.31
2023-03-03T18:52:14.980Z,65.37
2023-03-03T18:55:00.040Z,65.32
2023-03-03T18:57:31.664Z,65.29
2023-03-03T19:00:15.775Z,65.37
2023-03-03T19:02:55.571Z,65.33
2023-03-03T19:05:30.870Z,65.36
2023-03-03T19:08:02.734Z,65.28
2023-03-03T19:10:53.183Z,65.20
2023-03-03T19:13:48.079Z,65.16
2023-03-03T19:16:36.849Z,65.32
2023-03-03T19:19:14.905Z,65.41
2023-03-03T19:21:51.251Z,65.44
2023-03-03T19:24:36.019Z,65.41
2023-03-03T19:27:26.794Z,65.55
2023-03-03T19:30:22.510Z,65.41
2023-03-03T19:33:18.650Z,65.41
2023-03-03T19:36:00.307Z,65.34
2023-03-03T19:38:40.181Z,65.33
2023-03-03T19:41:28.955Z,65.48
2023-03-03T19:44:14.174Z,65.64
2023-03-03T19:47:00.138Z,65.64
2023-03-03T19:49:59.850Z,65.70
2023-03-03T19:52:37.931Z,65.62
2023-03-03T19:55:28.356Z,65.48
2023-03-03T19:58:14.367Z,65.39
2023-03-03T20:00:48.379Z,65.22
2023-03-03T20:03:49.312Z,65.45
2023-03-03T20:06:33.424Z,65.41
2023-03-03T20:09:09.732Z,65.33
2023-03-03T20:11:59.300Z,65.32
2023-03-03T20:14:46.035Z,65.32
2023-03-03T20:17:33.210Z,65.30
2023-03-03T20:20:10.519Z,65.20
2023-03-03T20:22:49.781Z,65.17
2023-03-03T20:25:30.909Z,65.32
2023-03-03T20:28:21.588Z,65.12
2023-03-03T20:31:05.996Z,64.91
2023-03-03T20:33:50.964Z,65.04
2023-03-03T20:36:30.221Z,65.02
2023-03-03T20:39:09.018Z,64.98
2023-03-03T20:41:58.805Z,65.07
2023-03-03T20:44:44.135Z,65.21
2023-03-03T20:47:27.400Z,65.16
2023-03-03T20:50:15.491Z,65.14
2023-03-03T20:52:59.322Z,65.19
2023-03-03T20:55:46.456Z,65.15
2023-03-03T20:58:25.802Z,65.37
2023-03-03T21:01:04.367Z,65.16
2023-03-03T21:03:37.751Z,65.36
2023-03-03T21:06:15.231Z,65.15
2023-03-03T21:08:53.694Z,65.12
2023-03-03T21:11:41.145Z,64.98
2023-03-03T21:14:21.319Z,65.18
2023-03-03T21:16:54.421Z,65.38
2023-03-03T21:19:31.505Z,65.35
2023-03-03T21:22:04.576Z,65.24
2023-03-03T21:24:53.610Z,65.20
2023-03-03T21:27:30.449Z,65.36
2023-03-03T21:30:12.329Z,65.38
2023-03-03T21:32:49.201Z,65.29
2023-03-03T21:35:22.626Z,65.15
2023-03-03T21:37:55.307Z,65.16
2023-03-03T21:40:29.212Z,65.22
2023-03-03T21:43:01.393Z,65.08
2023-03-03T21:45:33.015Z,64.92
2023-03-03T21:48:07.410Z,65.16
2023-03-03T21:50:41.336Z,64.91
2023-03-03T21:53:12.891Z,64.98
2023-03-03T21:55:48.774Z,64.70
2023-03-03T21:58:20.625Z,64.65
2023-03-03T22:00:51.825Z,64.69
2023-03-03T22:03:26.121Z,64.68
2023-03-03T22:05:57.862Z,64.56
2023-03-03T22:08:32.443Z,64.43
2023-03-03T22:11:03.972Z,64.75
2023-03-03T22:13:35.266Z,64.72
2023-03-03T22:16:07.837Z,64.63
2023-03-03T22:18:39.091Z,64.76
2023-03-03T22:21:10.111Z,64.66
2023-03-03T22:23:41.325Z,64.47
2023-03-03T22:26:12.473Z,64.58
2023-03-03T22:28:44.493Z,64.53
2023-03-03T22:31:15.817Z,64.34
2023-03-03T22:33:47.440Z,64.66
2023-03-03T22:36:19.590Z,64.25
2023-03-03T22:38:51.225Z,64.37
2023-03-03T22:41:22.503Z,64.31
2023-03-03T22:43:56.698Z,64.65
2023-03-03T22:46:27.859Z,64.37
2023-03-03T22:48:59.033Z,64.50
2023-03-03T22:51:30.144Z,64.51
2023-03-03T22:54:01.407Z,64.81
2023-03-03T22:56:32.398Z,64.52
2023-03-03T22:59:03.717Z,64.54
2023-03-03T23:01:35.069Z,64.61
2023-03-03T23:04:06.491Z,64.47
2023-03-03T23:06:37.442Z,64.54
2023-03-03T23:09:08.892Z,64.44
2023-03-03T23:11:39.944Z,64.19
2023-03-03T23:14:11.165Z,64.04
2023-03-03T23:16:42.153Z,64.17
2023-03-03T23:19:13.142Z,64.53
2023-03-03T23:21:44.116Z,64.64
2023-03-03T23:24:15.186Z,64.50
2023-03-03T23:26:46.373Z,64.61
2023-03-03T23:29:17.389Z,64.44
2023-03-03T23:31:48.378Z,64.38
2023-03-03T23:34:19.457Z,64.30
2023-03-03T23:36:50.437Z,64.11
2023-03-03T23:39:21.682Z,64.30
2023-03-03T23:41:52.588Z,64.07
2023-03-03T23:44:23.706Z,64.11
2023-03-03T23:46:54.742Z,64.06
2023-03-03T23:49:25.751Z,64.32
2023-03-03T23:51:56.823Z,64.38
2023-03-03T23:54:28.056Z,64.40
2023-03-03T23:56:59.464Z,64.60
2023-03-03T23:59:30.421Z,64.59
